Time;durP1;ratioP1;P1;durP2;ratioP2;P2;SDS_P1;SDS_P2;PMS_P1;PMS_P2;Temp;Humidity;BMP_temperature;BMP_pressure;BME280_temperature;BME280_humidity;BME280_pressure;Samples;Min_cycle;Max_cycle;Signal;HPM_P1;HPM_P2
2023/06/29 00:01:24;;;;;;;22.17;14.30;;;;;;;19.86;100.00;101522.63;4876307;29;20037;-91
2023/06/29 00:03:50;;;;;;;24.03;14.47;;;;;;;19.85;100.00;101525.66;4899778;29;20070;-91
2023/06/29 00:06:15;;;;;;;21.60;14.60;;;;;;;19.80;100.00;101523.84;4913718;29;20481;-88
2023/06/29 00:08:40;;;;;;;22.45;15.18;;;;;;;19.76;100.00;101518.19;4896209;29;20120;-91
2023/06/29 00:11:07;;;;;;;21.40;14.20;;;;;;;19.77;100.00;101519.81;4914568;29;20063;-89
2023/06/29 00:13:33;;;;;;;22.88;15.70;;;;;;;19.75;100.00;101504.94;4912086;29;20810;-89
2023/06/29 00:15:58;;;;;;;20.20;15.23;;;;;;;19.73;100.00;101512.56;4894935;29;20040;-89
2023/06/29 00:18:28;;;;;;;19.07;14.20;;;;;;;19.74;100.00;101511.47;4876405;29;20057;-89
2023/06/29 00:20:54;;;;;;;22.80;15.40;;;;;;;19.68;100.00;101500.69;4880538;29;20033;-90
2023/06/29 00:23:20;;;;;;;23.63;15.57;;;;;;;19.72;100.00;101508.25;4899232;29;20047;-89
2023/06/29 00:25:47;;;;;;;23.25;15.70;;;;;;;19.66;100.00;101496.69;4914159;29;20388;-89
2023/06/29 00:28:15;;;;;;;21.95;14.63;;;;;;;19.64;100.00;101496.97;4915276;29;20036;-89
2023/06/29 00:30:40;;;;;;;19.00;14.13;;;;;;;19.67;100.00;101492.84;4906635;29;20035;-89
2023/06/29 00:33:06;;;;;;;25.97;15.77;;;;;;;19.62;100.00;101495.66;4897095;29;20281;-89
2023/06/29 00:35:32;;;;;;;22.80;15.10;;;;;;;19.63;100.00;101497.28;4914863;29;20064;-89
2023/06/29 00:37:57;;;;;;;23.30;15.77;;;;;;;19.57;100.00;101490.31;4894650;29;20111;-89
2023/06/29 00:40:23;;;;;;;20.37;14.87;;;;;;;19.47;100.00;101478.56;4915455;23;20079;-89
2023/06/29 00:42:48;;;;;;;20.70;14.60;;;;;;;19.42;100.00;101478.66;4914910;29;20020;-90
2023/06/29 00:45:15;;;;;;;22.02;14.68;;;;;;;19.54;100.00;101483.59;4913598;29;20064;-89
2023/06/29 00:47:41;;;;;;;23.88;15.80;;;;;;;19.55;100.00;101492.53;4893910;29;20029;-90
2023/06/29 00:50:08;;;;;;;24.33;15.25;;;;;;;19.52;100.00;101486.63;4899946;29;20083;-90
2023/06/29 00:52:34;;;;;;;22.33;16.13;;;;;;;19.51;100.00;101486.91;4913591;29;20058;-89
2023/06/29 00:55:00;;;;;;;22.55;15.05;;;;;;;19.52;100.00;101494.78;4916939;29;20042;-90
2023/06/29 00:57:25;;;;;;;25.03;15.67;;;;;;;19.48;100.00;101485.63;4932873;29;20024;-90
2023/06/29 00:59:51;;;;;;;26.50;15.63;;;;;;;19.44;100.00;101479.16;4924940;29;20032;-89
2023/06/29 01:02:17;;;;;;;25.03;15.60;;;;;;;19.44;100.00;101479.16;4935120;29;20039;-89
2023/06/29 01:04:45;;;;;;;24.70;16.58;;;;;;;19.43;100.00;101474.84;4917911;29;20028;-89
2023/06/29 01:07:59;;;;;;;28.33;15.80;;;;;;;19.44;100.00;101472.94;4918920;29;20066;-89
2023/06/29 01:10:27;;;;;;;25.70;16.33;;;;;;;19.41;100.00;101468.09;4917985;29;20376;-89
2023/06/29 01:12:53;;;;;;;27.45;15.98;;;;;;;19.41;100.00;101462.66;4915704;29;20055;-89
2023/06/29 01:15:21;;;;;;;27.40;17.05;;;;;;;19.37;100.00;101467.88;4917843;29;20028;-89
2023/06/29 01:17:47;;;;;;;26.88;17.08;;;;;;;19.36;100.00;101469.00;4918393;29;20032;-90
2023/06/29 01:20:14;;;;;;;27.70;16.67;;;;;;;19.37;100.00;101463.28;4918956;29;20060;-89
2023/06/29 01:22:55;;;;;;;25.88;15.98;;;;;;;19.36;100.00;101466.28;4903814;29;20028;-89
2023/06/29 01:25:21;;;;;;;30.63;17.38;;;;;;;19.35;100.00;101464.69;4903790;29;20043;-89
2023/06/29 01:44:55;;;;;;;27.23;16.95;;;;;;;19.34;100.00;101452.22;4845075;29;20050;-90
2023/06/29 01:47:21;;;;;;;28.23;17.20;;;;;;;19.32;100.00;101449.00;4918793;29;20062;-89
2023/06/29 01:49:48;;;;;;;25.97;16.80;;;;;;;19.32;100.00;101449.00;4936019;29;20032;-89
2023/06/29 01:52:14;;;;;;;26.50;16.23;;;;;;;19.29;100.00;101446.88;4936530;29;20535;-90
2023/06/29 01:54:40;;;;;;;25.50;15.57;;;;;;;19.31;100.00;101455.53;4904558;29;20028;-91
2023/06/29 01:59:41;;;;;;;28.83;17.20;;;;;;;19.08;100.00;101420.09;5002273;23;20392;-91
2023/06/29 02:02:07;;;;;;;29.73;17.27;;;;;;;19.19;100.00;101435.09;4877398;29;20045;-91
2023/06/29 02:04:33;;;;;;;29.48;16.52;;;;;;;19.15;100.00;101425.13;4877189;29;20621;-91
2023/06/29 02:07:07;;;;;;;26.50;17.03;;;;;;;19.26;100.00;101442.84;4896385;29;20548;-92
2023/06/29 02:09:32;;;;;;;26.02;15.93;;;;;;;19.13;100.00;101420.00;4898233;29;20119;-91
2023/06/29 03:08:48;;;;;;;23.05;15.98;;;;;;;19.08;100.00;101392.94;4995887;23;20142;-90
2023/06/29 03:11:32;;;;;;;25.90;15.80;;;;;;;19.04;100.00;101392.75;4917168;29;20047;-90
2023/06/29 03:14:03;;;;;;;24.53;16.00;;;;;;;19.16;100.00;101411.25;4919093;29;20507;-85
2023/06/29 03:16:28;;;;;;;23.50;16.23;;;;;;;19.04;100.00;101381.06;4933484;29;20367;-84
2023/06/29 03:19:00;;;;;;;28.38;17.42;;;;;;;19.05;100.00;101390.81;4922251;29;20059;-84
2023/06/29 03:21:25;;;;;;;26.60;16.45;;;;;;;18.96;100.00;101376.34;4937447;29;20031;-85
2023/06/29 03:23:50;;;;;;;25.93;16.53;;;;;;;19.12;100.00;101395.84;4934709;29;20027;-85
2023/06/29 03:27:00;;;;;;;25.80;16.80;;;;;;;19.17;100.00;101407.41;4929498;29;20553;-85
2023/06/29 03:29:26;;;;;;;25.38;16.63;;;;;;;19.05;100.00;101385.41;4926465;29;20042;-85
2023/06/29 03:31:51;;;;;;;28.50;17.13;;;;;;;19.14;100.00;101396.34;4921597;29;20091;-85
2023/06/29 03:34:17;;;;;;;28.60;16.65;;;;;;;19.14;100.00;101394.47;4926691;29;20030;-84
2023/06/29 03:36:42;;;;;;;26.70;17.53;;;;;;;19.19;100.00;101399.78;4909095;29;20032;-85
2023/06/29 03:39:08;;;;;;;26.27;16.83;;;;;;;19.14;100.00;101394.47;4931296;29;20031;-85
2023/06/29 03:41:33;;;;;;;31.80;17.47;;;;;;;19.15;100.00;101396.06;4935835;29;20031;-85
2023/06/29 03:43:58;;;;;;;28.23;17.67;;;;;;;19.16;100.00;101396.84;4945007;29;20067;-85
2023/06/29 03:46:24;;;;;;;31.33;18.73;;;;;;;19.14;100.00;101388.22;4944124;29;20036;-89
2023/06/29 03:48:49;;;;;;;28.65;17.75;;;;;;;19.14;100.00;101389.03;4915851;29;20488;-84
2023/06/29 03:51:15;;;;;;;28.17;17.47;;;;;;;19.15;100.00;101395.25;4918528;29;20119;-84
2023/06/29 03:53:40;;;;;;;29.27;17.30;;;;;;;19.16;100.00;101391.44;4931568;29;20118;-84
2023/06/29 03:56:06;;;;;;;25.80;17.63;;;;;;;19.16;100.00;101392.25;4929045;29;20020;-84
2023/06/29 03:58:32;;;;;;;30.70;17.70;;;;;;;19.18;100.00;101392.72;4919202;29;20036;-87
2023/06/29 04:00:58;;;;;;;28.08;17.17;;;;;;;19.19;100.00;101390.81;4900623;29;20036;-86
2023/06/29 04:03:23;;;;;;;30.27;17.80;;;;;;;19.21;100.00;101396.78;4922974;29;20392;-85
2023/06/29 04:05:49;;;;;;;28.93;17.57;;;;;;;19.24;100.00;101388.03;4907433;29;20027;-84
2023/06/29 04:08:14;;;;;;;31.47;18.20;;;;;;;19.26;100.00;101382.28;4898910;29;20064;-84
2023/06/29 04:10:40;;;;;;;30.17;17.45;;;;;;;19.29;100.00;101384.38;4935173;29;20035;-85
2023/06/29 04:13:05;;;;;;;28.13;17.27;;;;;;;19.32;100.00;101381.06;4926891;29;20051;-85
2023/06/29 04:15:31;;;;;;;31.40;17.73;;;;;;;19.32;100.00;101375.63;4937999;29;20028;-85
2023/06/29 04:17:56;;;;;;;32.75;18.00;;;;;;;19.32;100.00;101376.41;4938012;29;20019;-85
2023/06/29 04:20:22;;;;;;;30.23;18.67;;;;;;;19.33;100.00;101374.53;4928012;29;20038;-84
2023/06/29 04:22:47;;;;;;;29.10;18.00;;;;;;;19.34;100.00;101374.22;4932874;29;20028;-84
2023/06/29 04:25:12;;;;;;;30.37;16.90;;;;;;;19.36;100.00;101369.28;4922041;29;20354;-85
2023/06/29 04:27:38;;;;;;;25.53;16.97;;;;;;;19.39;100.00;101373.28;4920574;29;20038;-86
2023/06/29 04:30:04;;;;;;;26.67;16.97;;;;;;;19.41;100.00;101373.78;4927374;29;20036;-86
2023/06/29 04:32:30;;;;;;;29.25;17.33;;;;;;;19.42;100.00;101372.69;4918957;29;20456;-87
2023/06/29 04:34:55;;;;;;;28.02;16.90;;;;;;;19.43;100.00;101368.88;4927674;29;20050;-86
2023/06/29 04:37:21;;;;;;;25.83;17.07;;;;;;;19.43;100.00;101374.28;4919171;29;20028;-88
2023/06/29 04:39:46;;;;;;;27.07;16.60;;;;;;;19.47;100.00;101372.59;4916010;29;20107;-88
2023/06/29 04:42:13;;;;;;;26.42;16.83;;;;;;;19.47;100.00;101363.59;4915383;29;20028;-88
2023/06/29 04:44:41;;;;;;;31.57;16.60;;;;;;;19.50;100.00;101366.53;4923163;29;20070;-85
2023/06/29 04:47:07;;;;;;;29.33;17.33;;;;;;;19.49;100.00;101364.94;4925757;29;20310;-94
2023/06/29 04:49:36;;;;;;;32.80;18.00;;;;;;;19.54;100.00;101361.28;4918341;29;20064;-93
2023/06/29 04:52:05;;;;;;;30.98;18.23;;;;;;;19.61;100.00;101367.13;4899293;29;20035;-96
2023/06/29 04:54:31;;;;;;;33.30;18.65;;;;;;;19.62;100.00;101366.00;4915844;29;20035;-94
2023/06/29 04:56:56;;;;;;;29.47;16.93;;;;;;;19.70;100.00;101369.09;4917024;29;20103;-92
2023/06/29 04:59:24;;;;;;;29.47;17.60;;;;;;;19.77;100.00;101364.06;4924708;29;20028;-92
2023/06/29 05:01:50;;;;;;;31.60;18.55;;;;;;;19.84;100.00;101372.56;4918591;29;20043;-88
2023/06/29 05:04:15;;;;;;;30.17;17.67;;;;;;;19.90;100.00;101359.72;4921818;29;20023;-88
2023/06/29 05:06:40;;;;;;;26.13;16.90;;;;;;;19.98;100.00;101372.56;4923424;29;20547;-87
2023/06/29 05:09:07;;;;;;;29.67;17.45;;;;;;;20.01;100.00;101357.53;4913578;29;20071;-88
2023/06/29 05:11:34;;;;;;;28.50;18.07;;;;;;;20.04;100.00;101371.31;4914150;29;20055;-87
2023/06/29 05:13:59;;;;;;;32.50;17.42;;;;;;;20.04;100.00;101367.78;4923861;29;20036;-86
2023/06/29 05:16:25;;;;;;;31.43;18.53;;;;;;;20.04;100.00;101363.16;4913547;29;20034;-83
2023/06/29 05:18:50;;;;;;;28.67;16.92;;;;;;;20.09;100.00;101368.47;4913311;29;20025;-85
2023/06/29 05:21:15;;;;;;;35.47;17.20;;;;;;;20.11;100.00;101366.25;4913779;29;20028;-87
2023/06/29 05:23:40;;;;;;;30.87;17.97;;;;;;;20.12;100.00;101358.91;4920791;29;20063;-89
2023/06/29 05:26:06;;;;;;;32.23;17.90;;;;;;;20.16;100.00;101361.78;4920792;29;20028;-91
2023/06/29 05:28:31;;;;;;;30.03;17.00;;;;;;;20.16;100.00;101359.06;4924384;29;20047;-90
2023/06/29 05:30:57;;;;;;;29.58;17.15;;;;;;;20.20;100.00;101368.22;4924019;29;20038;-91
2023/06/29 05:33:23;;;;;;;31.63;18.53;;;;;;;20.21;100.00;101364.41;4930666;29;20028;-88
2023/06/29 05:35:48;;;;;;;29.42;18.50;;;;;;;20.22;100.00;101357.84;4932101;29;20565;-87
2023/06/29 05:38:14;;;;;;;26.97;16.90;;;;;;;20.28;100.00;101362.03;4932526;29;20063;-88
2023/06/29 05:40:39;;;;;;;33.00;18.83;;;;;;;20.27;100.00;101354.97;4916150;29;20091;-89
2023/06/29 05:43:04;;;;;;;30.67;18.87;;;;;;;20.32;100.00;101365.72;4923766;29;20036;-88
2023/06/29 05:45:30;;;;;;;33.28;17.52;;;;;;;20.41;100.00;101350.28;4919775;29;20039;-90
2023/06/29 05:47:55;;;;;;;31.63;18.20;;;;;;;20.51;100.00;101359.28;4912276;29;20487;-89
2023/06/29 05:50:21;;;;;;;36.63;17.97;;;;;;;20.60;100.00;101354.69;4913564;29;20024;-88
2023/06/29 05:52:46;;;;;;;33.97;18.42;;;;;;;20.80;100.00;101358.00;4912465;29;20845;-89
2023/06/29 05:55:11;;;;;;;32.70;19.67;;;;;;;20.96;100.00;101367.34;4917812;29;20408;-89
2023/06/29 05:57:38;;;;;;;38.20;18.53;;;;;;;21.03;100.00;101358.72;4916301;29;20032;-88
2023/06/29 06:00:09;;;;;;;29.40;17.88;;;;;;;21.08;100.00;101353.13;4911760;29;20028;-88
2023/06/29 06:02:36;;;;;;;35.08;17.83;;;;;;;21.08;100.00;101358.56;4910798;29;20036;-88
2023/06/29 06:05:02;;;;;;;31.75;17.58;;;;;;;21.06;100.00;101349.09;4913267;29;20080;-88
2023/06/29 06:07:29;;;;;;;28.37;17.50;;;;;;;21.08;100.00;101352.31;4915330;29;20518;-87
2023/06/29 06:09:55;;;;;;;30.02;17.85;;;;;;;21.06;100.00;101349.91;4929719;29;20502;-88
2023/06/29 06:12:21;;;;;;;36.83;18.10;;;;;;;21.05;100.00;101347.50;4924465;29;20036;-89
2023/06/29 06:14:46;;;;;;;29.95;17.80;;;;;;;21.14;99.80;101351.06;4925693;29;20475;-89
2023/06/29 06:17:12;;;;;;;29.00;17.30;;;;;;;21.23;99.01;101353.78;4923732;29;20505;-93
2023/06/29 06:19:37;;;;;;;28.97;17.17;;;;;;;21.29;97.92;101352.50;4927775;29;20044;-90
2023/06/29 06:22:03;;;;;;;37.47;17.25;;;;;;;21.36;97.29;101363.75;4926675;29;20039;-88
2023/06/29 06:24:28;;;;;;;29.33;17.20;;;;;;;21.51;96.77;101354.31;4917517;29;20028;-88
2023/06/29 06:26:54;;;;;;;27.63;16.33;;;;;;;21.76;95.77;101363.66;4929819;29;20164;-89
2023/06/29 06:32:39;;;;;;;22.35;15.63;;;;;;;22.12;93.96;101345.31;5826519;23;20099;-91
2023/06/29 06:35:07;;;;;;;29.15;16.63;;;;;;;22.23;91.20;101352.03;4899496;29;20492;-90
2023/06/29 06:37:36;;;;;;;26.90;15.60;;;;;;;22.37;90.99;101356.50;4914159;29;20251;-90
2023/06/29 06:40:07;;;;;;;27.53;16.20;;;;;;;22.48;90.33;101356.97;4915728;29;20296;-89
2023/06/29 06:42:34;;;;;;;26.38;15.98;;;;;;;22.56;89.77;101349.88;4916190;29;20075;-90
2023/06/29 06:45:00;;;;;;;23.05;15.20;;;;;;;22.67;89.60;101354.66;4915918;29;20095;-90
2023/06/29 06:47:26;;;;;;;25.38;15.57;;;;;;;22.74;87.24;101356.88;4915888;29;20441;-90
2023/06/29 06:49:51;;;;;;;25.03;15.33;;;;;;;22.83;86.29;101357.63;4914194;29;20039;-92
2023/06/29 06:52:16;;;;;;;28.83;16.15;;;;;;;22.89;86.40;101360.16;4903792;29;20032;-93
2023/06/29 06:54:42;;;;;;;27.37;15.57;;;;;;;22.95;85.53;101356.13;4913417;29;20032;-91
2023/06/29 06:57:07;;;;;;;30.00;16.93;;;;;;;22.90;86.83;101350.84;4916205;29;20552;-92
2023/06/29 06:59:32;;;;;;;26.10;15.77;;;;;;;22.91;85.48;101358.72;4915628;29;20098;-91
2023/06/29 07:01:58;;;;;;;24.60;15.53;;;;;;;23.06;84.35;101351.88;4908499;29;20473;-91
2023/06/29 07:04:23;;;;;;;26.77;15.37;;;;;;;23.37;83.82;101348.00;4897038;29;20303;-92
2023/06/29 07:06:48;;;;;;;29.57;15.57;;;;;;;23.71;80.97;101354.34;4902465;29;20763;-92
2023/06/29 07:09:14;;;;;;;27.33;16.57;;;;;;;24.16;80.81;101352.84;4911875;29;20070;-91
2023/06/29 07:11:40;;;;;;;24.35;15.27;;;;;;;24.49;76.62;101351.97;4915371;29;20528;-86
2023/06/29 07:14:05;;;;;;;26.73;15.23;;;;;;;24.83;75.67;101351.09;4901739;29;20361;-90
2023/06/29 07:16:31;;;;;;;23.90;15.13;;;;;;;25.06;70.54;101340.47;4929045;29;20040;-94
2023/06/29 07:19:04;;;;;;;29.23;16.10;;;;;;;25.24;69.90;101341.78;4932799;29;20326;-92
2023/06/29 07:21:30;;;;;;;25.23;15.38;;;;;;;25.29;67.05;101343.50;4901141;29;20039;-96
2023/06/29 07:23:55;;;;;;;23.63;14.90;;;;;;;25.37;67.39;101345.31;4902845;29;20655;-96
2023/06/29 07:26:22;;;;;;;22.73;15.03;;;;;;;25.48;66.84;101348.41;4918092;29;20042;-96
2023/06/29 07:28:48;;;;;;;22.50;15.17;;;;;;;25.59;64.37;101351.44;4907766;29;20296;-96
2023/06/29 07:31:13;;;;;;;22.90;15.55;;;;;;;25.61;62.67;101349.16;4912044;29;20036;-96
2023/06/29 07:33:38;;;;;;;24.10;15.17;;;;;;;25.55;63.23;101347.81;4924804;29;20047;-95
2023/06/29 07:36:04;;;;;;;24.70;15.40;;;;;;;25.64;64.80;101350.41;4931855;29;20054;-96
2023/06/29 07:45:01;;;;;;;23.15;16.42;;;;;;;25.87;60.05;101352.59;4949506;29;20116;-96
2023/06/29 07:47:29;;;;;;;23.42;15.68;;;;;;;25.64;59.75;101337.50;4943383;29;20046;-96
2023/06/29 07:49:58;;;;;;;21.88;15.25;;;;;;;25.66;60.10;101329.69;4930531;28;20044;-95
2023/06/29 07:52:30;;;;;;;23.40;16.55;;;;;;;25.65;59.70;101311.66;4938396;28;20026;-96
2023/06/29 07:55:01;;;;;;;26.10;16.58;;;;;;;25.86;58.95;101349.03;4919354;28;20024;-95
2023/06/29 07:57:27;;;;;;;23.27;15.88;;;;;;;25.96;58.72;101336.75;4908032;29;20039;-96
2023/06/29 07:59:52;;;;;;;24.03;15.43;;;;;;;26.20;57.43;101337.81;4910606;29;20028;-96
2023/06/29 08:02:18;;;;;;;25.25;16.88;;;;;;;26.44;57.16;101343.16;4924462;29;20107;-94
2023/06/29 08:04:43;;;;;;;25.13;16.67;;;;;;;26.74;56.50;101325.41;4912739;29;20063;-96
2023/06/29 08:07:08;;;;;;;24.30;15.73;;;;;;;27.08;55.78;101338.72;4919908;29;20032;-94
2023/06/29 08:09:34;;;;;;;23.63;15.93;;;;;;;27.24;53.39;101342.22;4919552;29;20031;-96
2023/06/29 08:11:59;;;;;;;21.53;15.33;;;;;;;27.40;53.70;101335.84;4918570;29;20032;-95
2023/06/29 08:14:24;;;;;;;22.15;15.27;;;;;;;27.43;53.09;101338.69;4918385;29;20036;-96
2023/06/29 08:16:50;;;;;;;24.00;15.03;;;;;;;27.37;54.02;101329.13;4919693;29;20040;-95
2023/06/29 08:19:15;;;;;;;24.43;16.30;;;;;;;27.14;54.96;101331.78;4919343;29;20035;-95
2023/06/29 08:21:41;;;;;;;25.00;15.47;;;;;;;26.88;53.03;101333.19;4905050;29;20025;-96
2023/06/29 08:24:08;;;;;;;25.40;16.10;;;;;;;26.80;54.50;101334.19;4917650;29;20721;-94
2023/06/29 08:26:34;;;;;;;23.25;15.68;;;;;;;26.65;52.59;101333.00;4903183;29;20061;-96
2023/06/29 08:29:00;;;;;;;24.45;15.82;;;;;;;26.71;53.67;101326.09;4916730;29;20035;-94
2023/06/29 08:31:25;;;;;;;22.97;15.73;;;;;;;26.88;53.12;101331.25;4924917;29;20031;-95
2023/06/29 08:33:50;;;;;;;26.30;16.13;;;;;;;27.05;52.52;101332.00;4917920;29;20032;-95
2023/06/29 08:36:15;;;;;;;27.17;16.17;;;;;;;27.06;52.24;101336.34;4900579;29;20043;-93
2023/06/29 08:38:46;;;;;;;23.13;15.53;;;;;;;27.15;53.47;101336.94;4917215;29;20107;-95
2023/06/29 08:41:11;;;;;;;27.08;17.67;;;;;;;27.25;51.83;101341.06;4918466;29;20135;-96
2023/06/29 08:43:37;;;;;;;26.55;16.48;;;;;;;27.16;50.94;101333.03;4918511;29;20059;-94
2023/06/29 08:46:02;;;;;;;27.17;17.10;;;;;;;27.24;52.80;101328.47;4919567;29;20028;-94
2023/06/29 08:48:31;;;;;;;28.17;17.27;;;;;;;27.24;50.94;101330.44;4918422;29;20695;-96
2023/06/29 08:51:02;;;;;;;30.33;17.97;;;;;;;27.23;52.33;101328.84;4917608;29;20794;-95
2023/06/29 08:53:28;;;;;;;27.23;17.08;;;;;;;27.23;53.25;101332.38;4918397;29;20038;-95
2023/06/29 08:55:53;;;;;;;24.13;15.90;;;;;;;27.61;52.55;101327.28;4925018;29;20036;-94
2023/06/29 08:58:22;;;;;;;28.00;18.00;;;;;;;27.61;51.86;101328.06;4917653;29;20096;-94
2023/06/29 09:00:48;;;;;;;27.50;17.55;;;;;;;27.64;52.32;101324.59;4901840;29;20043;-95
2023/06/29 09:03:14;;;;;;;28.52;17.75;;;;;;;27.65;50.15;101322.66;4922732;29;20076;-96
2023/06/29 09:05:39;;;;;;;26.40;16.87;;;;;;;27.75;49.80;101313.78;4916218;29;20032;-96
2023/06/29 09:08:05;;;;;;;27.13;17.67;;;;;;;28.08;49.76;101312.41;4936714;29;20276;-95
2023/06/29 09:10:31;;;;;;;25.67;17.13;;;;;;;28.41;48.79;101313.75;4921461;29;20060;-96
2023/06/29 09:12:56;;;;;;;27.00;17.88;;;;;;;28.59;48.24;101309.72;4920679;28;20024;-96
2023/06/29 09:15:25;;;;;;;25.37;17.30;;;;;;;29.08;47.68;101321.84;4939645;28;20024;-95
2023/06/29 09:17:55;;;;;;;25.58;17.35;;;;;;;29.16;44.62;101318.81;4941226;29;20032;-96
2023/06/29 09:20:21;;;;;;;26.27;16.50;;;;;;;29.43;43.87;101309.69;4925346;29;20020;-94
2023/06/29 09:22:51;;;;;;;26.63;17.15;;;;;;;29.63;45.03;101317.81;4925234;29;20016;-96
2023/06/29 09:25:16;;;;;;;28.25;16.92;;;;;;;29.61;43.83;101313.47;4924731;29;20020;-96
2023/06/29 09:27:41;;;;;;;22.33;15.40;;;;;;;29.10;44.26;101314.78;4957613;28;20032;-95
2023/06/29 09:30:08;;;;;;;23.23;16.53;;;;;;;29.03;44.57;101314.72;4944292;29;20095;-94
2023/06/29 09:32:38;;;;;;;23.38;16.15;;;;;;;28.90;44.44;101316.09;4922765;29;20391;-94
2023/06/29 09:35:08;;;;;;;24.05;15.25;;;;;;;28.73;45.17;101304.41;4922317;29;20036;-95
2023/06/29 09:37:34;;;;;;;25.10;15.05;;;;;;;28.73;46.16;101306.38;4938930;29;20032;-95
2023/06/29 09:40:00;;;;;;;22.27;15.32;;;;;;;28.50;45.67;101310.75;4922545;29;20055;-95
2023/06/29 09:42:29;;;;;;;23.67;15.27;;;;;;;28.35;46.13;101311.69;4910083;29;20055;-95
2023/06/29 09:45:14;;;;;;;24.03;15.63;;;;;;;28.23;47.78;101313.50;4932632;29;20323;-95
2023/06/29 09:47:48;;;;;;;24.60;16.02;;;;;;;28.32;47.50;101310.47;4921888;29;20420;-96
2023/06/29 09:50:21;;;;;;;27.05;16.70;;;;;;;28.22;47.71;101313.84;4941282;29;20269;-92
2023/06/29 09:52:48;;;;;;;24.08;16.40;;;;;;;28.34;47.81;101312.84;4941580;29;20059;-93
2023/06/29 09:55:17;;;;;;;22.75;16.60;;;;;;;28.32;47.80;101310.47;4930211;29;20082;-96
2023/06/29 09:57:45;;;;;;;25.20;16.67;;;;;;;28.57;47.68;101312.84;4957491;29;20042;-96
2023/06/29 10:00:13;;;;;;;23.42;17.05;;;;;;;28.62;46.73;101318.03;4977644;28;20027;-96
2023/06/29 10:02:41;;;;;;;24.95;16.58;;;;;;;28.50;45.30;101319.03;4940861;29;20024;-95
2023/06/29 10:05:08;;;;;;;22.05;15.88;;;;;;;28.64;45.88;101317.66;4941134;29;20031;-96
2023/06/29 10:07:35;;;;;;;24.00;15.87;;;;;;;28.64;45.04;101323.19;4946606;29;20042;-96
2023/06/29 10:10:02;;;;;;;23.73;16.93;;;;;;;28.61;45.15;101318.41;4940847;29;20292;-94
2023/06/29 10:12:28;;;;;;;25.00;16.45;;;;;;;28.54;45.68;101321.84;4951326;29;20051;-94
2023/06/29 10:14:58;;;;;;;24.90;17.33;;;;;;;28.55;46.94;101320.69;4942011;29;20012;-96
2023/06/29 10:17:34;;;;;;;26.67;17.05;;;;;;;28.71;47.11;101317.75;4935485;29;20032;-95
2023/06/29 10:20:03;;;;;;;26.55;17.63;;;;;;;28.78;46.27;101325.38;4944979;29;20031;-93
2023/06/29 10:22:31;;;;;;;29.60;18.60;;;;;;;28.70;46.15;101319.72;4951329;29;20047;-94
2023/06/29 10:25:04;;;;;;;27.17;18.38;;;;;;;28.94;45.12;101314.19;4958709;28;20036;-91
2023/06/29 10:27:33;;;;;;;24.95;18.42;;;;;;;29.11;43.40;101310.88;4944120;28;20066;-93
2023/06/29 10:30:03;;;;;;;30.75;18.15;;;;;;;29.14;44.17;101310.13;4941860;28;20013;-96
2023/06/29 10:32:37;;;;;;;29.00;18.87;;;;;;;29.01;44.78;101311.53;4992468;23;20052;-95
2023/06/29 10:35:11;;;;;;;27.00;18.27;;;;;;;29.09;45.59;101307.69;4943269;29;20265;-95
2023/06/29 10:40:16;;;;;;;27.10;18.02;;;;;;;28.78;46.00;101306.88;4981707;23;20040;-96
2023/06/29 10:42:51;;;;;;;27.85;19.02;;;;;;;28.82;46.23;101316.00;5073345;23;20039;-96
2023/06/29 10:45:21;;;;;;;29.00;19.27;;;;;;;28.52;46.71;101319.44;4940434;29;20044;-95
2023/06/29 10:47:55;;;;;;;28.20;18.13;;;;;;;28.30;47.46;101314.78;4924036;29;20033;-95
2023/06/29 10:50:36;;;;;;;27.20;18.35;;;;;;;28.17;48.04;101308.66;4916950;29;20058;-96
2023/06/29 10:53:05;;;;;;;25.85;17.90;;;;;;;28.08;48.36;101301.41;4916325;29;20060;-95
2023/06/29 10:55:41;;;;;;;30.20;19.40;;;;;;;28.09;48.98;101300.22;4938268;29;20024;-96
2023/06/29 11:25:28;;;;;;;30.23;19.83;;;;;;;28.51;47.91;101306.84;4913473;29;20047;-96
2023/06/29 11:27:57;;;;;;;27.20;19.37;;;;;;;28.37;46.87;101292.84;4906493;29;20674;-96
2023/06/29 11:30:22;;;;;;;31.30;20.38;;;;;;;28.50;47.40;101276.91;4929783;29;20040;-96
2023/06/29 11:32:50;;;;;;;29.08;19.90;;;;;;;28.73;45.58;101287.84;4912237;29;20040;-96
2023/06/29 11:35:20;;;;;;;30.90;20.63;;;;;;;28.76;45.24;101287.16;4909818;29;20017;-95
2023/06/29 11:37:46;;;;;;;29.27;19.50;;;;;;;28.45;45.20;101300.06;4913514;29;20040;-96
2023/06/29 11:40:24;;;;;;;33.07;18.63;;;;;;;28.04;45.84;101270.22;4918881;29;20276;-94
2023/06/29 11:42:57;;;;;;;27.60;19.42;;;;;;;28.07;45.14;101268.72;4931119;29;20430;-96
2023/06/29 11:45:43;;;;;;;29.92;20.08;;;;;;;28.54;46.31;101272.25;4929942;29;20039;-96
2023/06/29 11:48:11;;;;;;;29.50;19.92;;;;;;;29.07;45.28;101282.44;4925906;29;20024;-96
2023/06/29 11:50:37;;;;;;;30.58;19.48;;;;;;;29.15;45.00;101267.56;4903242;29;20029;-93
2023/06/29 11:53:10;;;;;;;32.58;21.13;;;;;;;29.46;45.18;101284.91;4908932;29;20024;-95
2023/06/29 11:55:36;;;;;;;32.10;20.67;;;;;;;29.71;44.49;101278.03;4913915;29;20091;-96
2023/06/29 11:58:03;;;;;;;33.43;20.90;;;;;;;29.99;45.00;101279.53;5007267;23;20081;-95
2023/06/29 12:03:04;;;;;;;31.25;21.08;;;;;;;30.16;44.45;101267.03;4927132;29;20055;-96
2023/06/29 12:12:24;;;;;;;34.40;23.42;;;;;;;29.67;43.77;101253.16;5497946;23;20040;-96
2023/06/29 12:14:54;;;;;;;36.15;22.23;;;;;;;29.46;43.40;101226.16;5113250;23;20052;-96
2023/06/29 12:27:37;;;;;;;34.53;22.88;;;;;;;30.12;42.98;101246.88;4910902;29;20041;-96
2023/06/29 12:30:04;;;;;;;35.10;23.30;;;;;;;29.53;42.83;101209.66;4976798;23;20026;-96
2023/06/29 12:32:29;;;;;;;37.70;24.25;;;;;;;29.71;42.22;101218.09;4901403;29;20076;-96
2023/06/29 12:34:58;;;;;;;35.77;23.93;;;;;;;30.02;42.46;101234.56;4920013;29;20036;-96
2023/06/29 12:37:24;;;;;;;39.38;25.83;;;;;;;30.27;42.05;101226.47;4919838;29;20088;-96
2023/06/29 12:39:51;;;;;;;35.30;24.23;;;;;;;30.36;41.08;101237.19;4900085;29;20044;-96
2023/06/29 12:42:24;;;;;;;36.72;24.50;;;;;;;30.56;41.78;101212.84;4990891;23;20049;-92
2023/06/29 12:44:50;;;;;;;35.72;24.17;;;;;;;31.04;39.88;101238.75;4896370;29;20092;-88
2023/06/29 12:47:18;;;;;;;36.60;24.52;;;;;;;31.41;40.75;101237.66;4887696;29;20037;-88
2023/06/29 12:49:46;;;;;;;42.67;27.30;;;;;;;31.07;39.69;101224.91;4873976;29;20032;-87
2023/06/29 12:52:11;;;;;;;43.57;26.50;;;;;;;30.81;41.27;101237.84;4879560;29;20434;-88
2023/06/29 12:54:37;;;;;;;37.27;25.30;;;;;;;30.55;41.40;101238.09;4880998;29;20303;-89
2023/06/29 13:00:53;;;;;;;;;;;;;;;;;;;;;
2023/06/29 13:03:19;;;;;;;40.67;26.67;;;;;;;31.27;39.08;101214.31;4917936;29;20032;-93
2023/06/29 13:05:48;;;;;;;41.87;27.13;;;;;;;31.39;39.80;101217.91;4918112;29;20403;-91
2023/06/29 13:08:14;;;;;;;41.90;27.80;;;;;;;31.72;38.99;101225.06;4920326;29;20070;-88
2023/06/29 13:10:39;;;;;;;39.97;28.43;;;;;;;31.86;38.95;101231.81;4918908;29;20055;-90
2023/06/29 13:13:05;;;;;;;45.53;28.50;;;;;;;31.82;38.59;101231.81;4919129;29;20037;-89
2023/06/29 13:15:31;;;;;;;43.55;30.23;;;;;;;31.62;38.86;101227.81;4916344;29;20048;-87
2023/06/29 13:35:54;;;;;;;46.33;29.02;;;;;;;31.37;39.61;101220.28;4919468;29;20067;-89
2023/06/29 13:52:41;;;;;;;25.55;17.30;;;;;;;26.93;50.10;101255.94;4921101;29;20128;-89
2023/06/29 13:55:16;;;;;;;26.40;16.85;;;;;;;26.94;51.12;101223.72;4905989;29;20492;-89
2023/06/29 13:57:54;;;;;;;25.53;15.57;;;;;;;27.05;50.74;101231.03;4906311;29;20020;-89
2023/06/29 14:00:26;;;;;;;26.10;16.70;;;;;;;26.64;52.57;101222.31;4921954;29;20286;-90